createdAt,value
2019-02-02T00:00:41.014Z,0.00
2019-02-02T00:01:40.715Z,0.00
2019-02-02T00:03:34.870Z,0.00
2019-02-02T00:04:34.884Z,0.00
2019-02-02T00:06:26.982Z,0.00
2019-02-02T00:07:26.972Z,0.00
2019-02-02T00:09:20.800Z,0.00
2019-02-02T00:10:20.285Z,0.00
2019-02-02T00:12:12.883Z,0.00
2019-02-02T00:13:12.867Z,0.00
2019-02-02T00:15:05.422Z,0.00
2019-02-02T00:16:05.210Z,0.00
2019-02-02T00:17:57.327Z,4.00
2019-02-02T00:18:57.272Z,4.00
2019-02-02T00:20:49.840Z,0.00
2019-02-02T00:21:49.869Z,0.00
2019-02-02T00:23:42.978Z,0.00
2019-02-02T00:24:43.220Z,0.00
2019-02-02T00:26:35.829Z,4.00
2019-02-02T00:27:41.557Z,4.00
2019-02-02T00:29:28.652Z,4.00
2019-02-02T00:30:28.881Z,4.00
2019-02-02T00:32:21.977Z,4.00
2019-02-02T00:33:20.986Z,4.00
2019-02-02T00:35:14.342Z,4.00
2019-02-02T00:36:14.603Z,4.00
2019-02-02T00:38:07.120Z,8.00
2019-02-02T00:39:06.699Z,4.00
2019-02-02T00:40:59.040Z,4.00
2019-02-02T00:41:59.252Z,4.00
2019-02-02T00:43:52.810Z,8.00
2019-02-02T00:44:52.372Z,8.00
2019-02-02T00:46:44.835Z,4.00
2019-02-02T00:47:44.920Z,4.00
2019-02-02T00:49:38.283Z,8.00
2019-02-02T00:50:38.048Z,8.00
2019-02-02T00:52:30.391Z,8.00
2019-02-02T00:53:30.382Z,8.00
2019-02-02T00:55:24.110Z,12.00
2019-02-02T00:56:23.918Z,8.00
2019-02-02T00:58:17.085Z,12.00
2019-02-02T00:59:17.291Z,12.00
2019-02-02T01:01:09.701Z,8.00
2019-02-02T01:02:09.532Z,8.00
2019-02-02T01:04:01.640Z,8.00
2019-02-02T01:05:01.880Z,12.00
2019-02-02T01:06:54.476Z,12.00
2019-02-02T01:07:54.160Z,12.00
2019-02-02T01:09:46.536Z,16.00
2019-02-02T01:10:46.480Z,20.00
2019-02-02T01:12:38.833Z,28.00
2019-02-02T01:13:38.861Z,40.00
2019-02-02T01:15:30.952Z,40.00
2019-02-02T01:16:31.160Z,48.00
2019-02-02T01:18:23.234Z,44.00
2019-02-02T01:19:22.787Z,48.00
2019-02-02T01:21:15.140Z,44.00
2019-02-02T01:22:15.389Z,40.00
2019-02-02T01:24:07.983Z,28.00
2019-02-02T01:25:07.503Z,36.00
2019-02-02T01:26:59.818Z,60.00
2019-02-02T01:28:05.433Z,76.00
2019-02-02T01:29:52.400Z,84.00
2019-02-02T01:30:52.396Z,84.00
2019-02-02T01:32:45.608Z,80.00
2019-02-02T01:33:45.529Z,92.00
2019-02-02T01:35:38.068Z,108.00
2019-02-02T01:36:38.122Z,112.00
2019-02-02T01:38:30.417Z,116.00
2019-02-02T01:39:30.468Z,120.00
2019-02-02T01:41:22.553Z,128.00
2019-02-02T01:42:22.033Z,120.00
2019-02-02T01:44:15.424Z,104.00
2019-02-02T01:45:15.376Z,112.00
2019-02-02T01:47:09.212Z,108.00
2019-02-02T01:48:09.002Z,112.00
2019-02-02T01:50:01.078Z,116.00
2019-02-02T01:51:01.302Z,116.00
2019-02-02T01:52:54.869Z,120.00
2019-02-02T01:53:54.655Z,120.00
2019-02-02T01:55:46.770Z,116.00
2019-02-02T01:56:46.950Z,120.00
2019-02-02T01:58:40.313Z,116.00
2019-02-02T01:59:40.120Z,108.00
2019-02-02T02:01:33.159Z,112.00
2019-02-02T02:02:33.098Z,108.00
2019-02-02T02:04:27.208Z,112.00
2019-02-02T02:05:27.027Z,112.00
2019-02-02T02:07:19.302Z,104.00
2019-02-02T02:08:19.065Z,96.00
2019-02-02T02:10:12.911Z,96.00
2019-02-02T02:11:12.451Z,92.00
2019-02-02T02:13:04.795Z,88.00
2019-02-02T02:14:05.018Z,80.00
2019-02-02T02:15:58.577Z,72.00
2019-02-02T02:16:58.136Z,72.00
2019-02-02T02:18:49.998Z,68.00
2019-02-02T02:19:49.951Z,64.00
2019-02-02T02:21:42.497Z,64.00
2019-02-02T02:22:42.551Z,64.00
2019-02-02T02:24:35.645Z,68.00
2019-02-02T02:25:35.905Z,72.00
2019-02-02T02:27:28.255Z,80.00
2019-02-02T02:28:28.549Z,84.00
2019-02-02T02:30:20.602Z,84.00
2019-02-02T02:31:20.556Z,84.00
2019-02-02T02:33:13.882Z,84.00
2019-02-02T02:34:13.966Z,84.00
2019-02-02T02:36:06.292Z,80.00
2019-02-02T02:37:06.263Z,76.00
2019-02-02T02:38:59.568Z,72.00
2019-02-02T02:39:59.577Z,72.00
2019-02-02T02:41:51.716Z,76.00
2019-02-02T02:42:51.904Z,76.00
2019-02-02T02:44:44.486Z,76.00
2019-02-02T02:45:44.235Z,76.00
2019-02-02T02:47:36.640Z,76.00
2019-02-02T02:48:36.591Z,76.00
2019-02-02T02:50:28.930Z,76.00
2019-02-02T02:51:28.951Z,72.00
2019-02-02T02:53:21.039Z,76.00
2019-02-02T02:54:21.238Z,80.00
2019-02-02T02:56:13.973Z,84.00
2019-02-02T02:57:13.955Z,80.00
2019-02-02T02:59:06.288Z,80.00
2019-02-02T03:00:06.060Z,76.00
2019-02-02T03:01:59.874Z,76.00
2019-02-02T03:02:59.381Z,80.00
2019-02-02T03:04:51.267Z,72.00
2019-02-02T03:05:51.470Z,80.00
2019-02-02T03:07:43.816Z,76.00
2019-02-02T03:08:43.822Z,72.00
2019-02-02T03:10:37.130Z,72.00
2019-02-02T03:11:36.931Z,76.00
2019-02-02T03:13:29.462Z,72.00
2019-02-02T03:14:29.532Z,72.00
2019-02-02T03:16:22.200Z,72.00
2019-02-02T03:17:21.964Z,68.00
2019-02-02T03:19:14.764Z,68.00
2019-02-02T03:20:14.518Z,68.00
2019-02-02T03:22:07.894Z,68.00
2019-02-02T03:23:07.604Z,68.00
2019-02-02T03:25:00.573Z,68.00
2019-02-02T03:26:00.195Z,64.00
2019-02-02T03:27:52.334Z,60.00
2019-02-02T03:28:53.745Z,56.00
2019-02-02T03:30:44.378Z,56.00
2019-02-02T03:31:48.394Z,56.00
2019-02-02T03:33:37.556Z,52.00
2019-02-02T03:34:37.757Z,56.00
2019-02-02T03:36:30.345Z,56.00
2019-02-02T03:37:29.883Z,56.00
2019-02-02T03:39:22.470Z,56.00
2019-02-02T03:40:22.395Z,56.00
2019-02-02T03:42:14.921Z,56.00
2019-02-02T03:43:14.529Z,56.00
2019-02-02T03:45:06.893Z,52.00
2019-02-02T03:46:07.140Z,52.00
2019-02-02T03:48:00.641Z,52.00
2019-02-02T03:49:00.231Z,52.00
2019-02-02T03:50:52.821Z,48.00
2019-02-02T03:51:52.822Z,52.00
2019-02-02T03:53:45.318Z,48.00
2019-02-02T03:54:44.860Z,48.00
2019-02-02T03:56:37.424Z,48.00
2019-02-02T03:57:37.233Z,48.00
2019-02-02T03:59:30.812Z,48.00
2019-02-02T04:00:30.795Z,48.00
2019-02-02T04:02:22.926Z,48.00
2019-02-02T04:03:23.165Z,44.00
2019-02-02T04:05:17.245Z,40.00
2019-02-02T04:06:16.758Z,40.00
2019-02-02T04:08:10.116Z,40.00
2019-02-02T04:09:10.146Z,44.00
2019-02-02T04:11:03.941Z,44.00
2019-02-02T04:12:03.467Z,40.00
2019-02-02T04:13:57.119Z,40.00
2019-02-02T04:14:57.099Z,40.00
2019-02-02T04:16:49.565Z,40.00
2019-02-02T04:17:49.141Z,40.00
2019-02-02T04:19:41.705Z,36.00
2019-02-02T04:20:41.716Z,36.00
2019-02-02T04:22:35.790Z,36.00
2019-02-02T04:23:33.839Z,36.00
2019-02-02T04:25:26.195Z,36.00
2019-02-02T04:26:26.417Z,32.00
2019-02-02T04:28:19.778Z,32.00
2019-02-02T04:29:19.726Z,32.00
2019-02-02T04:31:13.073Z,32.00
2019-02-02T04:32:13.103Z,32.00
2019-02-02T04:34:05.623Z,32.00
2019-02-02T04:35:05.434Z,32.00
2019-02-02T04:36:57.808Z,36.00
2019-02-02T04:37:57.506Z,32.00
2019-02-02T04:39:50.267Z,36.00
2019-02-02T04:40:50.111Z,36.00
2019-02-02T04:42:43.245Z,32.00
2019-02-02T04:43:43.200Z,32.00
2019-02-02T04:45:36.540Z,32.00
2019-02-02T04:46:35.793Z,32.00
2019-02-02T04:48:28.883Z,32.00
2019-02-02T04:49:29.106Z,28.00
2019-02-02T04:51:21.739Z,28.00
2019-02-02T04:52:21.469Z,32.00
2019-02-02T04:54:13.833Z,32.00
2019-02-02T04:55:13.804Z,28.00
2019-02-02T04:57:06.341Z,28.00
2019-02-02T04:58:06.180Z,24.00
2019-02-02T04:59:58.542Z,24.00
2019-02-02T05:00:58.275Z,24.00
2019-02-02T05:02:51.055Z,24.00
2019-02-02T05:03:50.851Z,24.00
2019-02-02T05:05:43.166Z,28.00
2019-02-02T05:06:42.923Z,28.00
2019-02-02T05:08:35.467Z,28.00
2019-02-02T05:09:35.247Z,32.00
2019-02-02T05:11:27.810Z,32.00
2019-02-02T05:12:27.798Z,28.00
2019-02-02T05:14:20.385Z,32.00
2019-02-02T05:15:19.901Z,32.00
2019-02-02T05:17:12.271Z,28.00
2019-02-02T05:18:12.496Z,32.00
2019-02-02T05:20:06.239Z,28.00
2019-02-02T05:21:05.828Z,28.00
2019-02-02T05:22:58.512Z,28.00
2019-02-02T05:23:58.497Z,28.00
2019-02-02T05:25:50.618Z,28.00
2019-02-02T05:26:50.122Z,28.00
2019-02-02T05:28:43.761Z,32.00
2019-02-02T05:29:43.681Z,28.00
2019-02-02T05:31:36.202Z,28.00
2019-02-02T05:32:35.817Z,28.00
2019-02-02T05:34:28.547Z,24.00
2019-02-02T05:35:28.314Z,24.00
2019-02-02T05:37:21.103Z,24.00
2019-02-02T05:38:20.877Z,24.00
2019-02-02T05:40:13.185Z,24.00
2019-02-02T05:41:13.209Z,28.00
2019-02-02T05:43:07.343Z,28.00
2019-02-02T05:44:06.544Z,28.00
2019-02-02T05:45:59.964Z,32.00
2019-02-02T05:46:59.893Z,32.00
2019-02-02T05:48:53.536Z,32.00
2019-02-02T05:49:53.016Z,28.00
2019-02-02T05:51:46.397Z,28.00
2019-02-02T05:52:46.352Z,28.00
2019-02-02T05:54:38.900Z,28.00
2019-02-02T05:55:38.691Z,28.00
2019-02-02T05:57:32.315Z,28.00
2019-02-02T05:58:32.291Z,28.00
2019-02-02T06:00:24.553Z,28.00
2019-02-02T06:01:24.354Z,28.00
2019-02-02T06:03:17.075Z,28.00
2019-02-02T06:04:16.821Z,28.00
2019-02-02T06:06:09.459Z,28.00
2019-02-02T06:07:09.195Z,28.00
2019-02-02T06:09:02.570Z,28.00
2019-02-02T06:10:02.587Z,32.00
2019-02-02T06:11:55.116Z,28.00
2019-02-02T06:12:55.178Z,28.00
2019-02-02T06:14:48.244Z,28.00
2019-02-02T06:15:48.239Z,28.00
2019-02-02T06:17:40.811Z,28.00
2019-02-02T06:18:40.969Z,28.00
2019-02-02T06:20:33.307Z,32.00
2019-02-02T06:21:33.486Z,28.00
2019-02-02T06:23:25.782Z,32.00
2019-02-02T06:24:25.634Z,32.00
2019-02-02T06:26:19.015Z,32.00
2019-02-02T06:27:18.985Z,36.00
2019-02-02T06:29:12.538Z,36.00
2019-02-02T06:30:12.572Z,36.00
2019-02-02T06:32:11.917Z,36.00
2019-02-02T06:33:05.681Z,36.00
2019-02-02T06:34:58.476Z,36.00
2019-02-02T06:35:57.997Z,36.00
2019-02-02T06:37:51.354Z,36.00
2019-02-02T06:38:51.553Z,36.00
2019-02-02T06:40:44.911Z,36.00
2019-02-02T06:41:44.723Z,36.00
2019-02-02T06:43:37.245Z,36.00
2019-02-02T06:44:37.021Z,36.00
2019-02-02T06:46:30.164Z,36.00
2019-02-02T06:47:29.733Z,36.00
2019-02-02T06:49:22.073Z,36.00
2019-02-02T06:50:22.316Z,36.00
2019-02-02T06:52:14.552Z,32.00
2019-02-02T06:53:14.631Z,36.00
2019-02-02T06:55:07.999Z,32.00
2019-02-02T06:56:07.712Z,32.00
2019-02-02T06:58:00.262Z,32.00
2019-02-02T06:59:00.307Z,28.00
2019-02-02T07:00:52.668Z,28.00
2019-02-02T07:01:52.586Z,28.00
2019-02-02T07:03:45.141Z,28.00
2019-02-02T07:04:44.734Z,28.00
2019-02-02T07:06:37.076Z,32.00
2019-02-02T07:07:37.329Z,28.00
2019-02-02T07:09:29.617Z,28.00
2019-02-02T07:10:29.381Z,28.00
2019-02-02T07:12:22.742Z,28.00
2019-02-02T07:13:22.952Z,28.00
2019-02-02T07:15:15.309Z,28.00
2019-02-02T07:16:15.064Z,28.00
2019-02-02T07:18:07.422Z,28.00
2019-02-02T07:19:07.450Z,28.00
2019-02-02T07:21:00.000Z,28.00
2019-02-02T07:21:59.763Z,28.00
2019-02-02T07:23:52.272Z,24.00
2019-02-02T07:24:52.511Z,28.00
2019-02-02T07:26:45.547Z,24.00
2019-02-02T07:27:45.136Z,24.00
2019-02-02T07:29:38.834Z,24.00
2019-02-02T07:30:38.452Z,24.00
2019-02-02T07:32:32.300Z,24.00
2019-02-02T07:33:32.078Z,24.00
2019-02-02T07:35:24.714Z,24.00
2019-02-02T07:36:24.770Z,24.00
2019-02-02T07:38:18.287Z,24.00
2019-02-02T07:39:17.832Z,24.00
2019-02-02T07:41:10.175Z,24.00
2019-02-02T07:42:10.199Z,24.00
2019-02-02T07:44:02.683Z,20.00
2019-02-02T07:45:02.747Z,20.00
2019-02-02T07:46:55.886Z,24.00
2019-02-02T07:47:55.847Z,24.00
2019-02-02T07:49:48.423Z,20.00
2019-02-02T07:50:48.214Z,20.00
2019-02-02T07:52:41.834Z,20.00
2019-02-02T07:53:41.543Z,24.00
2019-02-02T07:55:34.345Z,20.00
2019-02-02T07:56:34.118Z,20.00
2019-02-02T07:58:27.672Z,20.00
2019-02-02T07:59:27.231Z,20.00
2019-02-02T08:01:19.756Z,20.00
2019-02-02T08:02:19.557Z,20.00
2019-02-02T08:04:11.917Z,20.00
2019-02-02T08:05:11.879Z,20.00
2019-02-02T08:07:05.231Z,16.00
2019-02-02T08:08:05.041Z,20.00
2019-02-02T08:09:58.214Z,20.00
2019-02-02T08:10:58.319Z,20.00
2019-02-02T08:12:51.705Z,16.00
2019-02-02T08:13:51.468Z,16.00
2019-02-02T08:15:44.073Z,20.00
2019-02-02T08:16:43.780Z,20.00
2019-02-02T08:18:37.315Z,20.00
2019-02-02T08:19:37.385Z,16.00
2019-02-02T08:21:29.518Z,16.00
2019-02-02T08:22:29.498Z,16.00
2019-02-02T08:24:21.788Z,16.00
2019-02-02T08:25:21.473Z,16.00
2019-02-02T08:27:14.955Z,16.00
2019-02-02T08:28:14.678Z,16.00
2019-02-02T08:30:08.524Z,16.00
2019-02-02T08:31:08.270Z,16.00
2019-02-02T08:33:00.642Z,16.00
2019-02-02T08:34:00.640Z,16.00
2019-02-02T08:35:52.409Z,12.00
2019-02-02T08:36:52.461Z,12.00
2019-02-02T08:38:44.822Z,12.00
2019-02-02T08:39:44.594Z,12.00
2019-02-02T08:41:38.344Z,12.00
2019-02-02T08:42:38.151Z,12.00
2019-02-02T08:44:30.238Z,12.00
2019-02-02T08:45:30.269Z,12.00
2019-02-02T08:47:24.021Z,12.00
2019-02-02T08:48:23.853Z,12.00
2019-02-02T08:50:16.057Z,12.00
2019-02-02T08:51:15.942Z,12.00
2019-02-02T08:53:09.762Z,12.00
2019-02-02T08:54:09.297Z,12.00
2019-02-02T08:56:01.857Z,8.00
2019-02-02T08:57:01.847Z,8.00
2019-02-02T08:58:54.376Z,12.00
2019-02-02T08:59:53.958Z,8.00
2019-02-02T09:01:48.146Z,8.00
2019-02-02T09:02:47.316Z,8.00
2019-02-02T09:04:39.850Z,8.00
2019-02-02T09:05:39.615Z,8.00
2019-02-02T09:07:31.938Z,8.00
2019-02-02T09:08:31.964Z,8.00
2019-02-02T09:10:24.503Z,8.00
2019-02-02T09:11:24.486Z,4.00
2019-02-02T09:13:17.907Z,8.00
2019-02-02T09:14:17.622Z,8.00
2019-02-02T09:16:10.165Z,8.00
2019-02-02T09:17:09.946Z,4.00
2019-02-02T09:19:02.505Z,4.00
2019-02-02T09:20:02.500Z,4.00
2019-02-02T09:21:56.073Z,8.00
2019-02-02T09:23:05.892Z,4.00
2019-02-02T09:24:48.258Z,4.00
2019-02-02T09:25:47.973Z,4.00
2019-02-02T09:27:40.714Z,4.00
2019-02-02T09:28:40.530Z,4.00
2019-02-02T09:30:33.903Z,4.00
2019-02-02T09:31:33.932Z,4.00
2019-02-02T09:33:26.458Z,4.00
2019-02-02T09:34:28.836Z,4.00
2019-02-02T09:36:18.900Z,4.00
2019-02-02T09:37:18.652Z,0.00
2019-02-02T09:39:11.260Z,0.00
2019-02-02T09:40:11.264Z,0.00
2019-02-02T09:42:04.594Z,4.00
2019-02-02T09:43:04.568Z,4.00
2019-02-02T09:44:57.952Z,4.00
2019-02-02T09:45:57.711Z,0.00
2019-02-02T09:47:51.278Z,0.00
2019-02-02T09:48:51.026Z,0.00
2019-02-02T09:50:43.560Z,0.00
2019-02-02T09:51:43.368Z,0.00
2019-02-02T09:53:36.983Z,0.00
2019-02-02T09:54:36.993Z,0.00
2019-02-02T09:56:28.988Z,0.00
2019-02-02T09:57:28.803Z,0.00
2019-02-02T09:59:21.214Z,0.00
2019-02-02T10:00:21.146Z,0.00
2019-02-02T10:02:13.759Z,0.00
2019-02-02T10:03:13.289Z,0.00
2019-02-02T10:05:06.834Z,0.00
2019-02-02T10:06:06.878Z,0.00
2019-02-02T10:08:00.087Z,0.00
2019-02-02T10:08:59.817Z,0.00
2019-02-02T10:10:53.461Z,0.00
2019-02-02T10:11:53.422Z,0.00
2019-02-02T10:13:46.020Z,0.00
2019-02-02T10:14:45.757Z,0.00
2019-02-02T10:16:38.100Z,0.00
2019-02-02T10:17:38.058Z,0.00
2019-02-02T10:19:31.599Z,0.00
2019-02-02T10:20:31.221Z,0.00
2019-02-02T10:22:23.522Z,0.00
2019-02-02T10:23:23.515Z,0.00
2019-02-02T10:25:17.110Z,0.00
2019-02-02T10:26:16.858Z,0.00
2019-02-02T10:28:10.059Z,0.00
2019-02-02T10:29:09.600Z,0.00
2019-02-02T10:31:02.131Z,0.00
2019-02-02T10:32:01.921Z,0.00
2019-02-02T10:33:55.254Z,0.00
2019-02-02T10:34:55.283Z,0.00
2019-02-02T10:36:47.976Z,0.00
2019-02-02T10:37:47.941Z,0.00
2019-02-02T10:39:40.334Z,0.00
2019-02-02T10:40:40.299Z,0.00
2019-02-02T10:42:32.586Z,0.00
2019-02-02T10:43:32.424Z,0.00
2019-02-02T10:45:25.007Z,0.00
2019-02-02T10:46:24.713Z,0.00
2019-02-02T10:48:18.729Z,0.00
2019-02-02T10:49:18.089Z,0.00
2019-02-02T10:51:11.455Z,0.00
2019-02-02T10:52:11.441Z,0.00
2019-02-02T10:54:05.646Z,0.00
2019-02-02T10:55:04.145Z,0.00
2019-02-02T10:56:56.446Z,0.00
2019-02-02T10:57:56.684Z,0.00
2019-02-02T10:59:50.262Z,0.00
2019-02-02T11:00:50.040Z,0.00
2019-02-02T11:02:42.378Z,0.00
2019-02-02T11:03:42.158Z,0.00
2019-02-02T11:05:34.914Z,0.00
2019-02-02T11:06:34.456Z,0.00
2019-02-02T11:08:27.868Z,0.00
2019-02-02T11:09:28.173Z,0.00
2019-02-02T11:11:21.092Z,0.00
2019-02-02T11:12:20.826Z,0.00
2019-02-02T11:14:13.098Z,0.00
2019-02-02T11:15:13.080Z,0.00
2019-02-02T11:17:06.395Z,0.00
2019-02-02T11:18:06.500Z,0.00
2019-02-02T11:19:58.744Z,0.00
2019-02-02T11:20:58.645Z,0.00
2019-02-02T11:22:51.322Z,0.00
2019-02-02T11:23:50.902Z,0.00
2019-02-02T11:25:44.446Z,0.00
2019-02-02T11:26:44.462Z,0.00
2019-02-02T11:28:36.737Z,0.00
2019-02-02T11:29:36.806Z,0.00
2019-02-02T11:31:28.840Z,0.00
2019-02-02T11:32:28.864Z,0.00
2019-02-02T11:34:22.403Z,0.00
2019-02-02T11:35:22.401Z,0.00
2019-02-02T11:37:15.391Z,0.00
2019-02-02T11:38:14.787Z,0.00
2019-02-02T11:40:08.094Z,0.00
2019-02-02T11:41:07.861Z,0.00
2019-02-02T11:43:00.193Z,0.00
2019-02-02T11:44:00.411Z,0.00
2019-02-02T11:45:54.006Z,0.00
2019-02-02T11:46:53.786Z,0.00
2019-02-02T11:48:45.905Z,0.00
2019-02-02T11:49:45.865Z,0.00
2019-02-02T11:51:39.476Z,0.00
2019-02-02T11:52:39.505Z,0.00
2019-02-02T11:54:32.562Z,0.00
2019-02-02T11:55:32.845Z,0.00
2019-02-02T11:57:25.373Z,0.00
2019-02-02T11:58:25.142Z,0.00
2019-02-02T12:00:18.505Z,0.00
2019-02-02T12:01:18.521Z,0.00
2019-02-02T12:03:11.806Z,0.00
2019-02-02T12:04:11.608Z,0.00
2019-02-02T12:06:04.984Z,0.00
2019-02-02T12:07:04.964Z,0.00
2019-02-02T12:08:58.049Z,0.00
2019-02-02T12:09:58.079Z,0.00
2019-02-02T12:11:50.123Z,0.00
2019-02-02T12:12:50.384Z,0.00
2019-02-02T12:14:43.719Z,0.00
2019-02-02T12:15:43.472Z,0.00
2019-02-02T12:17:36.858Z,0.00
2019-02-02T12:18:37.044Z,0.00
2019-02-02T12:20:33.120Z,0.00
2019-02-02T12:21:30.183Z,0.00
2019-02-02T12:23:23.809Z,0.00
2019-02-02T12:24:23.717Z,0.00
2019-02-02T12:26:17.319Z,0.00
2019-02-02T12:27:17.073Z,0.00
2019-02-02T12:29:09.446Z,0.00
2019-02-02T12:30:09.246Z,0.00
2019-02-02T12:32:02.067Z,0.00
2019-02-02T12:33:03.156Z,0.00
2019-02-02T12:34:55.360Z,0.00
2019-02-02T12:35:55.115Z,0.00
2019-02-02T12:37:47.728Z,0.00
2019-02-02T12:38:47.271Z,0.00
2019-02-02T12:40:40.579Z,0.00
2019-02-02T12:41:40.599Z,0.00
2019-02-02T12:43:38.644Z,0.00
2019-02-02T12:44:34.183Z,0.00
2019-02-02T12:46:26.533Z,0.00
2019-02-02T12:47:26.274Z,0.00
2019-02-02T12:49:18.900Z,0.00
2019-02-02T12:50:18.608Z,0.00
2019-02-02T12:52:11.180Z,0.00
2019-02-02T12:53:11.167Z,0.00
2019-02-02T12:55:04.495Z,0.00
2019-02-02T12:56:04.537Z,0.00
2019-02-02T12:57:57.614Z,0.00
2019-02-02T12:58:57.609Z,0.00
2019-02-02T13:00:50.160Z,0.00
2019-02-02T13:01:49.961Z,0.00
2019-02-02T13:03:43.550Z,0.00
2019-02-02T13:04:43.550Z,0.00
2019-02-02T13:06:35.854Z,0.00
2019-02-02T13:07:35.843Z,0.00
2019-02-02T13:09:28.976Z,0.00
2019-02-02T13:10:28.961Z,0.00
2019-02-02T13:12:21.746Z,0.00
2019-02-02T13:13:21.561Z,0.00
2019-02-02T13:15:13.637Z,0.00
2019-02-02T13:16:13.623Z,0.00
2019-02-02T13:18:06.430Z,0.00
2019-02-02T13:19:06.255Z,0.00
2019-02-02T13:20:58.296Z,0.00
2019-02-02T13:21:58.546Z,0.00
2019-02-02T13:23:51.163Z,0.00
2019-02-02T13:24:51.001Z,0.00
2019-02-02T13:26:43.325Z,0.00
2019-02-02T13:27:43.595Z,0.00
2019-02-02T13:29:35.907Z,0.00
2019-02-02T13:30:35.654Z,0.00
2019-02-02T13:32:28.239Z,0.00
2019-02-02T13:33:28.200Z,0.00
2019-02-02T13:35:20.579Z,0.00
2019-02-02T13:36:20.536Z,0.00
2019-02-02T13:38:13.027Z,0.00
2019-02-02T13:39:13.284Z,0.00
2019-02-02T13:41:06.852Z,0.00
2019-02-02T13:42:06.368Z,0.00
2019-02-02T13:43:59.003Z,0.00
2019-02-02T13:44:58.709Z,0.00
2019-02-02T13:46:51.671Z,0.00
2019-02-02T13:47:51.441Z,0.00
2019-02-02T13:49:43.562Z,0.00
2019-02-02T13:50:43.836Z,0.00
2019-02-02T13:52:36.344Z,0.00
2019-02-02T13:53:36.136Z,0.00
2019-02-02T13:55:29.376Z,0.00
2019-02-02T13:56:29.426Z,0.00
2019-02-02T13:58:22.065Z,0.00
2019-02-02T13:59:21.574Z,0.00
2019-02-02T14:01:13.896Z,0.00
2019-02-02T14:02:13.909Z,0.00
2019-02-02T14:04:07.463Z,0.00
2019-02-02T14:05:07.475Z,0.00
2019-02-02T14:06:59.827Z,0.00
2019-02-02T14:08:00.120Z,0.00
2019-02-02T14:09:52.685Z,0.00
2019-02-02T14:10:52.640Z,0.00
2019-02-02T14:12:46.049Z,0.00
2019-02-02T14:13:46.060Z,0.00
2019-02-02T14:15:39.402Z,0.00
2019-02-02T14:16:38.107Z,0.00
2019-02-02T14:18:31.493Z,0.00
2019-02-02T14:19:31.479Z,0.00
2019-02-02T14:21:24.017Z,0.00
2019-02-02T14:22:24.058Z,0.00
2019-02-02T14:24:17.362Z,0.00
2019-02-02T14:25:17.165Z,0.00
2019-02-02T14:27:09.699Z,0.00
2019-02-02T14:28:09.459Z,0.00
2019-02-02T14:30:02.084Z,0.00
2019-02-02T14:31:01.846Z,0.00
2019-02-02T14:32:55.314Z,0.00
2019-02-02T14:33:54.154Z,0.00
2019-02-02T14:35:46.519Z,0.00
2019-02-02T14:36:46.725Z,0.00
2019-02-02T14:38:40.319Z,0.00
2019-02-02T14:39:39.861Z,0.00
2019-02-02T14:41:32.388Z,0.00
2019-02-02T14:42:32.182Z,0.00
2019-02-02T14:44:25.962Z,0.00
2019-02-02T14:45:27.683Z,0.00
2019-02-02T14:47:18.870Z,0.00
2019-02-02T14:48:18.883Z,0.00
2019-02-02T14:50:12.690Z,0.00
2019-02-02T14:51:12.473Z,0.00
2019-02-02T14:53:05.779Z,0.00
2019-02-02T14:54:05.588Z,0.00
2019-02-02T14:55:58.324Z,0.00
2019-02-02T14:56:58.110Z,0.00
2019-02-02T14:58:50.449Z,0.00
2019-02-02T14:59:50.327Z,0.00
2019-02-02T15:01:42.780Z,0.00
2019-02-02T15:02:42.806Z,0.00
2019-02-02T15:04:35.926Z,0.00
2019-02-02T15:05:43.193Z,0.00
2019-02-02T15:07:29.700Z,0.00
2019-02-02T15:08:29.228Z,0.00
2019-02-02T15:10:22.579Z,0.00
2019-02-02T15:11:22.565Z,0.00
2019-02-02T15:13:16.156Z,0.00
2019-02-02T15:14:16.157Z,0.00
2019-02-02T15:16:09.556Z,0.00
2019-02-02T15:17:09.521Z,0.00
2019-02-02T15:19:03.068Z,0.00
2019-02-02T15:20:02.660Z,0.00
2019-02-02T15:21:54.949Z,0.00
2019-02-02T15:22:55.224Z,0.00
2019-02-02T15:24:47.534Z,0.00
2019-02-02T15:25:47.529Z,0.00
2019-02-02T15:27:40.898Z,0.00
2019-02-02T15:28:40.622Z,0.00
2019-02-02T15:30:33.460Z,0.00
2019-02-02T15:31:32.981Z,0.00
2019-02-02T15:33:37.199Z,0.00
2019-02-02T15:34:26.576Z,0.00
2019-02-02T15:36:20.107Z,0.00
2019-02-02T15:37:19.931Z,0.00
2019-02-02T15:39:11.977Z,0.00
2019-02-02T15:40:11.973Z,0.00
2019-02-02T15:42:06.502Z,0.00
2019-02-02T15:43:06.343Z,0.00
2019-02-02T15:44:58.652Z,0.00
2019-02-02T15:45:58.669Z,0.00
2019-02-02T15:47:52.221Z,0.00
2019-02-02T15:48:52.238Z,0.00
2019-02-02T15:50:44.589Z,0.00
2019-02-02T15:51:44.311Z,0.00
2019-02-02T15:53:37.106Z,0.00
2019-02-02T15:54:36.899Z,0.00
2019-02-02T15:56:30.848Z,0.00
2019-02-02T15:57:30.282Z,0.00
2019-02-02T15:59:22.624Z,0.00
2019-02-02T16:00:22.335Z,0.00
2019-02-02T16:02:14.908Z,0.00
2019-02-02T16:03:14.918Z,0.00
2019-02-02T16:05:07.202Z,0.00
2019-02-02T16:06:07.212Z,0.00
2019-02-02T16:08:00.359Z,0.00
2019-02-02T16:09:00.368Z,0.00
2019-02-02T16:10:53.690Z,0.00
2019-02-02T16:11:53.472Z,0.00
2019-02-02T16:13:45.779Z,0.00
2019-02-02T16:14:45.576Z,0.00
2019-02-02T16:16:38.321Z,0.00
2019-02-02T16:17:37.903Z,0.00
2019-02-02T16:19:30.221Z,0.00
2019-02-02T16:20:30.211Z,0.00
2019-02-02T16:22:22.523Z,0.00
2019-02-02T16:23:22.311Z,0.00
2019-02-02T16:25:14.684Z,0.00
2019-02-02T16:26:14.623Z,0.00
2019-02-02T16:28:07.988Z,0.00
2019-02-02T16:29:07.746Z,0.00
2019-02-02T16:31:00.369Z,0.00
2019-02-02T16:32:00.347Z,0.00
2019-02-02T16:34:01.447Z,0.00
2019-02-02T16:34:53.408Z,0.00
2019-02-02T16:36:46.987Z,0.00
2019-02-02T16:37:46.760Z,0.00
2019-02-02T16:39:40.296Z,0.00
2019-02-02T16:40:40.158Z,0.00
2019-02-02T16:42:32.449Z,0.00
2019-02-02T16:43:32.740Z,0.00
2019-02-02T16:45:26.291Z,0.00
2019-02-02T16:46:26.044Z,0.00
2019-02-02T16:48:18.146Z,0.00
2019-02-02T16:49:18.134Z,0.00
2019-02-02T16:51:10.431Z,0.00
2019-02-02T16:52:10.220Z,0.00
2019-02-02T16:54:02.748Z,0.00
2019-02-02T16:55:02.326Z,0.00
2019-02-02T16:56:55.866Z,0.00
2019-02-02T16:57:55.653Z,0.00
2019-02-02T16:59:48.033Z,0.00
2019-02-02T17:00:48.221Z,0.00
2019-02-02T17:02:40.535Z,0.00
2019-02-02T17:03:40.359Z,0.00
2019-02-02T17:05:32.564Z,0.00
2019-02-02T17:06:32.581Z,0.00
2019-02-02T17:08:25.484Z,0.00
2019-02-02T17:09:24.998Z,0.00
2019-02-02T17:11:17.383Z,0.00
2019-02-02T17:12:17.373Z,0.00
2019-02-02T17:14:11.155Z,0.00
2019-02-02T17:15:10.722Z,0.00
2019-02-02T17:17:04.330Z,0.00
2019-02-02T17:18:04.317Z,0.00
2019-02-02T17:19:56.575Z,0.00
2019-02-02T17:20:56.362Z,0.00
2019-02-02T17:22:48.925Z,0.00
2019-02-02T17:23:48.695Z,0.00
2019-02-02T17:25:41.358Z,0.00
2019-02-02T17:26:41.497Z,0.00
2019-02-02T17:28:33.509Z,0.00
2019-02-02T17:29:33.763Z,0.00
2019-02-02T17:31:27.281Z,0.00
2019-02-02T17:32:26.847Z,0.00
2019-02-02T17:34:27.006Z,0.00
2019-02-02T17:35:19.183Z,0.00
2019-02-02T17:37:15.979Z,0.00
2019-02-02T17:38:12.492Z,0.00
2019-02-02T17:40:04.859Z,0.00
2019-02-02T17:41:05.085Z,0.00
2019-02-02T17:42:57.739Z,0.00
2019-02-02T17:43:57.766Z,0.00
2019-02-02T17:45:50.088Z,0.00
2019-02-02T17:46:49.858Z,0.00
2019-02-02T17:48:43.420Z,0.00
2019-02-02T17:49:43.234Z,0.00
2019-02-02T17:51:36.550Z,0.00
2019-02-02T17:52:36.773Z,0.00
2019-02-02T17:54:29.108Z,0.00
2019-02-02T17:55:29.175Z,0.00
2019-02-02T17:57:22.464Z,0.00
2019-02-02T17:58:22.458Z,0.00
2019-02-02T18:00:16.015Z,0.00
2019-02-02T18:01:15.564Z,0.00
2019-02-02T18:03:07.693Z,0.00
2019-02-02T18:04:07.475Z,0.00
2019-02-02T18:06:01.414Z,0.00
2019-02-02T18:07:01.027Z,0.00
2019-02-02T18:08:53.377Z,0.00
2019-02-02T18:09:53.348Z,0.00
2019-02-02T18:11:46.171Z,0.00
2019-02-02T18:12:46.248Z,0.00
2019-02-02T18:14:38.543Z,0.00
2019-02-02T18:15:38.610Z,0.00
2019-02-02T18:17:31.920Z,0.00
2019-02-02T18:18:31.666Z,0.00
2019-02-02T18:20:25.045Z,0.00
2019-02-02T18:21:25.005Z,0.00
2019-02-02T18:23:18.376Z,0.00
2019-02-02T18:24:17.582Z,0.00
2019-02-02T18:26:09.674Z,0.00
2019-02-02T18:27:09.902Z,0.00
2019-02-02T18:29:02.566Z,0.00
2019-02-02T18:30:02.371Z,0.00
2019-02-02T18:31:54.701Z,0.00
2019-02-02T18:32:54.947Z,0.00
2019-02-02T18:34:51.268Z,0.00
2019-02-02T18:35:47.278Z,0.00
2019-02-02T18:37:39.630Z,0.00
2019-02-02T18:38:39.346Z,0.00
2019-02-02T18:40:33.227Z,0.00
2019-02-02T18:41:32.950Z,0.00
2019-02-02T18:43:25.059Z,0.00
2019-02-02T18:44:25.281Z,0.00
2019-02-02T18:46:17.848Z,0.00
2019-02-02T18:47:17.353Z,0.00
2019-02-02T18:49:09.731Z,0.00
2019-02-02T18:50:09.934Z,0.00
2019-02-02T18:52:02.255Z,0.00